sensor_id;sensor_type;location;lat;lon;timestamp;pressure;altitude;pressure_sealevel;temperature;humidity
66381;BME280;53177;52.648;1.214;2023-05-20T00:02:03;102390.53;;;8.67;100.00
66381;BME280;53177;52.648;1.214;2023-05-20T00:04:29;102389.63;;;8.65;100.00
66381;BME280;53177;52.648;1.214;2023-05-20T00:06:54;102393.09;;;8.62;100.00
66381;BME280;53177;52.648;1.214;2023-05-20T00:09:20;102393.97;;;8.61;100.00
66381;BME280;53177;52.648;1.214;2023-05-20T00:11:45;102393.09;;;8.62;100.00
66381;BME280;53177;52.648;1.214;2023-05-20T00:14:11;102397.50;;;8.62;100.00
66381;BME280;53177;52.648;1.214;2023-05-20T00:16:36;102391.31;;;8.57;100.00
66381;BME280;53177;52.648;1.214;2023-05-20T00:19:02;102392.13;;;8.53;100.00
66381;BME280;53177;52.648;1.214;2023-05-20T00:21:27;102393.88;;;8.54;100.00
66381;BME280;53177;52.648;1.214;2023-05-20T00:23:53;102403.50;;;8.49;100.00
66381;BME280;53177;52.648;1.214;2023-05-20T00:26:19;102400.91;;;8.53;100.00
66381;BME280;53177;52.648;1.214;2023-05-20T00:28:45;102394.72;;;8.51;100.00
66381;BME280;53177;52.648;1.214;2023-05-20T00:31:11;102396.44;;;8.48;100.00
66381;BME280;53177;52.648;1.214;2023-05-20T00:33:36;102385.03;;;8.49;100.00
66381;BME280;53177;52.648;1.214;2023-05-20T00:36:01;102396.47;;;8.51;100.00
66381;BME280;53177;52.648;1.214;2023-05-20T00:38:27;102394.72;;;8.51;100.00
66381;BME280;53177;52.648;1.214;2023-05-20T00:40:52;102382.41;;;8.50;100.00
66381;BME280;53177;52.648;1.214;2023-05-20T00:43:18;102383.22;;;8.46;100.00
66381;BME280;53177;52.648;1.214;2023-05-20T00:45:45;102387.66;;;8.47;100.00
66381;BME280;53177;52.648;1.214;2023-05-20T00:48:10;102383.25;;;8.48;100.00
66381;BME280;53177;52.648;1.214;2023-05-20T00:50:36;102382.34;;;8.44;100.00
66381;BME280;53177;52.648;1.214;2023-05-20T00:53:02;102380.53;;;8.40;100.00
66381;BME280;53177;52.648;1.214;2023-05-20T00:55:27;102380.50;;;8.37;100.00
66381;BME280;53177;52.648;1.214;2023-05-20T00:57:53;102376.06;;;8.36;100.00
66381;BME280;53177;52.648;1.214;2023-05-20T01:00:20;102380.50;;;8.37;100.00
66381;BME280;53177;52.648;1.214;2023-05-20T01:02:46;102380.53;;;8.40;100.00
66381;BME280;53177;52.648;1.214;2023-05-20T01:05:11;102376.03;;;8.33;100.00
66381;BME280;53177;52.648;1.214;2023-05-20T01:07:37;102382.22;;;8.34;100.00
66381;BME280;53177;52.648;1.214;2023-05-20T01:10:02;102369.00;;;8.32;100.00
66381;BME280;53177;52.648;1.214;2023-05-20T01:12:36;102375.06;;;8.28;100.00
66381;BME280;53177;52.648;1.214;2023-05-20T01:15:09;102363.69;;;8.29;100.00
66381;BME280;53177;52.648;1.214;2023-05-20T01:17:39;102370.72;;;8.30;100.00
66381;BME280;53177;52.648;1.214;2023-05-20T01:20:10;102377.78;;;8.31;100.00
66381;BME280;53177;52.648;1.214;2023-05-20T01:22:49;102380.31;;;8.28;100.00
66381;BME280;53177;52.648;1.214;2023-05-20T01:25:16;102373.34;;;8.28;100.00
66381;BME280;53177;52.648;1.214;2023-05-20T01:27:42;102375.94;;;8.27;100.00
66381;BME280;53177;52.648;1.214;2023-05-20T01:30:08;102365.38;;;8.24;100.00
66381;BME280;53177;52.648;1.214;2023-05-20T01:32:36;102371.44;;;8.20;100.00
66381;BME280;53177;52.648;1.214;2023-05-20T01:35:03;102360.91;;;8.20;100.00
66381;BME280;53177;52.648;1.214;2023-05-20T01:37:30;102364.44;;;8.22;100.00
66381;BME280;53177;52.648;1.214;2023-05-20T01:39:57;102355.66;;;8.20;100.00
66381;BME280;53177;52.648;1.214;2023-05-20T01:42:25;102364.41;;;8.19;100.00
66381;BME280;53177;52.648;1.214;2023-05-20T01:44:51;102361.72;;;8.17;100.00
66381;BME280;53177;52.648;1.214;2023-05-20T01:47:16;102350.31;;;8.15;100.00
66381;BME280;53177;52.648;1.214;2023-05-20T01:49:42;102364.38;;;8.16;100.00
66381;BME280;53177;52.648;1.214;2023-05-20T01:52:10;102360.00;;;8.16;100.00
66381;BME280;53177;52.648;1.214;2023-05-20T01:54:35;102352.09;;;8.18;100.00
66381;BME280;53177;52.648;1.214;2023-05-20T01:57:01;102353.00;;;8.21;100.00
66381;BME280;53177;52.648;1.214;2023-05-20T01:59:27;102349.56;;;8.24;100.00
66381;BME280;53177;52.648;1.214;2023-05-20T02:01:52;102344.28;;;8.25;100.00
66381;BME280;53177;52.648;1.214;2023-05-20T02:04:18;102343.44;;;8.26;100.00
66381;BME280;53177;52.648;1.214;2023-05-20T02:06:44;102343.34;;;8.22;100.00
66381;BME280;53177;52.648;1.214;2023-05-20T02:09:10;102349.47;;;8.19;100.00
66381;BME280;53177;52.648;1.214;2023-05-20T02:11:35;102346.91;;;8.24;100.00
66381;BME280;53177;52.648;1.214;2023-05-20T02:14:01;102347.75;;;8.21;100.00
66381;BME280;53177;52.648;1.214;2023-05-20T02:16:26;102342.44;;;8.18;100.00
66381;BME280;53177;52.648;1.214;2023-05-20T02:18:51;102344.22;;;8.19;100.00
66381;BME280;53177;52.648;1.214;2023-05-20T02:21:17;102336.28;;;8.16;100.00
66381;BME280;53177;52.648;1.214;2023-05-20T02:23:43;102337.97;;;8.14;100.00
66381;BME280;53177;52.648;1.214;2023-05-20T02:26:08;102332.72;;;8.13;100.00
66381;BME280;53177;52.648;1.214;2023-05-20T02:28:33;102328.28;;;8.10;100.00
66381;BME280;53177;52.648;1.214;2023-05-20T02:30:59;102331.72;;;8.06;100.00
66381;BME280;53177;52.648;1.214;2023-05-20T02:33:24;102335.22;;;8.04;100.00
66381;BME280;53177;52.648;1.214;2023-05-20T02:35:52;102333.47;;;8.04;100.00
66381;BME280;53177;52.648;1.214;2023-05-20T02:38:17;102334.31;;;8.02;100.00
66381;BME280;53177;52.648;1.214;2023-05-20T02:40:45;102325.47;;;7.97;100.00
66381;BME280;53177;52.648;1.214;2023-05-20T02:43:11;102328.06;;;7.94;100.00
66381;BME280;53177;52.648;1.214;2023-05-20T02:45:36;102332.44;;;7.95;100.00
66381;BME280;53177;52.648;1.214;2023-05-20T02:48:01;102331.50;;;7.91;100.00
66381;BME280;53177;52.648;1.214;2023-05-20T02:50:27;102335.06;;;7.95;100.00
66381;BME280;53177;52.648;1.214;2023-05-20T02:52:53;102336.81;;;7.93;100.00
66381;BME280;53177;52.648;1.214;2023-05-20T02:55:18;102335.03;;;7.92;100.00
66381;BME280;53177;52.648;1.214;2023-05-20T02:57:44;102329.75;;;7.90;100.00
66381;BME280;53177;52.648;1.214;2023-05-20T03:00:10;102328.75;;;7.83;100.00
66381;BME280;53177;52.648;1.214;2023-05-20T03:02:37;102323.47;;;7.80;100.00
66381;BME280;53177;52.648;1.214;2023-05-20T03:05:03;102326.06;;;7.77;100.00
66381;BME280;53177;52.648;1.214;2023-05-20T03:07:29;102320.78;;;7.76;100.00
66381;BME280;53177;52.648;1.214;2023-05-20T03:09:58;102327.81;;;7.77;100.00
66381;BME280;53177;52.648;1.214;2023-05-20T03:12:24;102326.03;;;7.74;100.00
66381;BME280;53177;52.648;1.214;2023-05-20T03:14:51;102330.31;;;7.69;100.00
66381;BME280;53177;52.648;1.214;2023-05-20T03:17:21;102327.59;;;7.63;100.00
66381;BME280;53177;52.648;1.214;2023-05-20T03:19:50;102318.78;;;7.61;100.00
66381;BME280;53177;52.648;1.214;2023-05-20T03:22:25;102320.47;;;7.58;100.00
66381;BME280;53177;52.648;1.214;2023-05-20T03:24:54;102323.16;;;7.59;100.00
66381;BME280;53177;52.648;1.214;2023-05-20T03:27:23;102316.16;;;7.61;100.00
66381;BME280;53177;52.648;1.214;2023-05-20T03:29:55;102317.03;;;7.62;100.00
66381;BME280;53177;52.648;1.214;2023-05-20T03:32:25;102315.28;;;7.62;100.00
66381;BME280;53177;52.648;1.214;2023-05-20T03:34:51;102314.47;;;7.65;100.00
66381;BME280;53177;52.648;1.214;2023-05-20T03:37:16;102307.50;;;7.68;100.00
66381;BME280;53177;52.648;1.214;2023-05-20T03:39:41;102306.59;;;7.66;100.00
66381;BME280;53177;52.648;1.214;2023-05-20T03:42:07;102303.16;;;7.72;100.00
66381;BME280;53177;52.648;1.214;2023-05-20T03:44:32;102307.59;;;7.74;100.00
66381;BME280;53177;52.648;1.214;2023-05-20T03:46:57;102305.91;;;7.79;100.00
66381;BME280;53177;52.648;1.214;2023-05-20T03:49:23;102305.94;;;7.82;100.00
66381;BME280;53177;52.648;1.214;2023-05-20T03:51:48;102305.09;;;7.85;100.00
66381;BME280;53177;52.648;1.214;2023-05-20T03:54:13;102306.88;;;7.86;100.00
66381;BME280;53177;52.648;1.214;2023-05-20T03:56:40;102307.78;;;7.87;100.00
66381;BME280;53177;52.648;1.214;2023-05-20T03:59:06;102306.03;;;7.89;100.00
66381;BME280;53177;52.648;1.214;2023-05-20T04:01:31;102299.91;;;7.90;100.00
66381;BME280;53177;52.648;1.214;2023-05-20T04:03:58;102297.28;;;7.90;100.00
66381;BME280;53177;52.648;1.214;2023-05-20T04:06:23;102292.00;;;7.91;100.00
66381;BME280;53177;52.648;1.214;2023-05-20T04:08:49;102294.69;;;7.94;100.00
66381;BME280;53177;52.648;1.214;2023-05-20T04:11:14;102294.69;;;7.96;100.00
66381;BME280;53177;52.648;1.214;2023-05-20T04:13:39;102294.69;;;7.94;100.00
66381;BME280;53177;52.648;1.214;2023-05-20T04:16:05;102296.44;;;7.95;100.00
66381;BME280;53177;52.648;1.214;2023-05-20T04:18:30;102304.38;;;7.97;100.00
66381;BME280;53177;52.648;1.214;2023-05-20T04:20:56;102310.53;;;7.97;100.00
66381;BME280;53177;52.648;1.214;2023-05-20T04:23:22;102311.44;;;7.99;100.00
66381;BME280;53177;52.648;1.214;2023-05-20T04:25:48;102306.16;;;7.99;100.00
66381;BME280;53177;52.648;1.214;2023-05-20T04:28:13;102302.69;;;8.00;100.00
66381;BME280;53177;52.648;1.214;2023-05-20T04:30:40;102301.81;;;8.03;100.00
66381;BME280;53177;52.648;1.214;2023-05-20T04:33:07;102312.38;;;8.06;100.00
66381;BME280;53177;52.648;1.214;2023-05-20T04:35:32;102310.69;;;8.09;100.00
66381;BME280;53177;52.648;1.214;2023-05-20T04:37:59;102312.47;;;8.10;100.00
66381;BME280;53177;52.648;1.214;2023-05-20T04:40:27;102309.84;;;8.13;100.00
66381;BME280;53177;52.648;1.214;2023-05-20T04:42:52;102307.28;;;8.16;100.00
66381;BME280;53177;52.648;1.214;2023-05-20T04:45:18;102309.91;;;8.15;100.00
66381;BME280;53177;52.648;1.214;2023-05-20T04:47:43;102309.94;;;8.18;100.00
66381;BME280;53177;52.648;1.214;2023-05-20T04:50:11;102312.63;;;8.22;100.00
66381;BME280;53177;52.648;1.214;2023-05-20T04:52:38;102309.13;;;8.25;100.00
66381;BME280;53177;52.648;1.214;2023-05-20T04:55:05;102304.81;;;8.28;100.00
66381;BME280;53177;52.648;1.214;2023-05-20T04:57:31;102298.63;;;8.28;100.00
66381;BME280;53177;52.648;1.214;2023-05-20T04:59:58;102309.25;;;8.31;100.00
66381;BME280;53177;52.648;1.214;2023-05-20T05:02:24;102303.16;;;8.35;100.00
66381;BME280;53177;52.648;1.214;2023-05-20T05:04:49;102297.94;;;8.41;100.00
66381;BME280;53177;52.648;1.214;2023-05-20T05:07:15;102299.75;;;8.45;100.00
66381;BME280;53177;52.648;1.214;2023-05-20T05:09:40;102307.72;;;8.51;100.00
66381;BME280;53177;52.648;1.214;2023-05-20T05:12:06;102310.41;;;8.57;100.00
66381;BME280;53177;52.648;1.214;2023-05-20T05:14:31;102309.63;;;8.63;100.00
66381;BME280;53177;52.648;1.214;2023-05-20T05:16:56;102309.69;;;8.70;100.00
66381;BME280;53177;52.648;1.214;2023-05-20T05:19:22;102313.25;;;8.74;100.00
66381;BME280;53177;52.648;1.214;2023-05-20T05:21:47;102304.56;;;8.84;100.00
66381;BME280;53177;52.648;1.214;2023-05-20T05:24:13;102307.25;;;8.89;100.00
66381;BME280;53177;52.648;1.214;2023-05-20T05:26:38;102302.00;;;8.95;100.00
66381;BME280;53177;52.648;1.214;2023-05-20T05:29:03;102304.69;;;8.99;100.00
66381;BME280;53177;52.648;1.214;2023-05-20T05:31:29;102303.88;;;9.05;100.00
66381;BME280;53177;52.648;1.214;2023-05-20T05:33:54;102301.31;;;9.12;100.00
66381;BME280;53177;52.648;1.214;2023-05-20T05:36:20;102301.41;;;9.23;100.00
66381;BME280;53177;52.648;1.214;2023-05-20T05:38:45;102303.19;;;9.27;100.00
66381;BME280;53177;52.648;1.214;2023-05-20T05:41:11;102301.47;;;9.35;100.00
66381;BME280;53177;52.648;1.214;2023-05-20T05:43:36;102302.38;;;9.36;100.00
66381;BME280;53177;52.648;1.214;2023-05-20T05:46:01;102305.03;;;9.40;100.00
66381;BME280;53177;52.648;1.214;2023-05-20T05:48:27;102305.09;;;9.48;100.00
66381;BME280;53177;52.648;1.214;2023-05-20T05:50:52;102298.13;;;9.53;100.00
66381;BME280;53177;52.648;1.214;2023-05-20T05:53:18;102300.78;;;9.62;100.00
66381;BME280;53177;52.648;1.214;2023-05-20T05:55:45;102307.00;;;9.67;100.00
66381;BME280;53177;52.648;1.214;2023-05-20T05:58:10;102301.75;;;9.71;100.00
66381;BME280;53177;52.648;1.214;2023-05-20T06:00:36;102299.16;;;9.79;100.00
66381;BME280;53177;52.648;1.214;2023-05-20T06:03:01;102298.31;;;9.88;100.00
66381;BME280;53177;52.648;1.214;2023-05-20T06:05:27;102298.38;;;9.97;100.00
66381;BME280;53177;52.648;1.214;2023-05-20T06:07:52;102298.41;;;10.06;100.00
66381;BME280;53177;52.648;1.214;2023-05-20T06:10:18;102295.84;;;10.18;100.00
66381;BME280;53177;52.648;1.214;2023-05-20T06:12:43;102303.84;;;10.27;100.00
66381;BME280;53177;52.648;1.214;2023-05-20T06:15:09;102295.91;;;10.29;100.00
66381;BME280;53177;52.648;1.214;2023-05-20T06:17:34;102289.72;;;10.31;100.00
66381;BME280;53177;52.648;1.214;2023-05-20T06:20:00;102295.06;;;10.37;100.00
66381;BME280;53177;52.648;1.214;2023-05-20T06:22:25;102291.56;;;10.50;100.00
66381;BME280;53177;52.648;1.214;2023-05-20T06:24:52;102298.63;;;10.53;100.00
66381;BME280;53177;52.648;1.214;2023-05-20T06:27:20;102292.47;;;10.61;100.00
66381;BME280;53177;52.648;1.214;2023-05-20T06:29:46;102284.56;;;10.72;100.00
66381;BME280;53177;52.648;1.214;2023-05-20T06:32:11;102289.00;;;10.82;100.00
66381;BME280;53177;52.648;1.214;2023-05-20T06:34:36;102291.63;;;10.84;100.00
66381;BME280;53177;52.648;1.214;2023-05-20T06:37:02;102291.66;;;10.93;100.00
66381;BME280;53177;52.648;1.214;2023-05-20T06:39:27;102284.59;;;11.02;100.00
66381;BME280;53177;52.648;1.214;2023-05-20T06:41:52;102280.19;;;11.13;99.64
66381;BME280;53177;52.648;1.214;2023-05-20T06:44:18;102275.78;;;11.21;99.26
66381;BME280;53177;52.648;1.214;2023-05-20T06:46:43;102277.53;;;11.21;96.86
66381;BME280;53177;52.648;1.214;2023-05-20T06:49:09;102281.94;;;11.28;97.29
66381;BME280;53177;52.648;1.214;2023-05-20T06:51:34;102284.59;;;11.30;95.73
66381;BME280;53177;52.648;1.214;2023-05-20T06:54:00;102274.88;;;11.42;96.32
66381;BME280;53177;52.648;1.214;2023-05-20T06:56:25;102293.41;;;11.44;94.54
66381;BME280;53177;52.648;1.214;2023-05-20T06:58:51;102282.81;;;11.53;94.76
66381;BME280;53177;52.648;1.214;2023-05-20T07:01:16;102283.69;;;11.56;94.52
66381;BME280;53177;52.648;1.214;2023-05-20T07:03:42;102281.91;;;11.63;93.87
66381;BME280;53177;52.648;1.214;2023-05-20T07:06:09;102283.66;;;11.70;93.90
66381;BME280;53177;52.648;1.214;2023-05-20T07:08:34;102277.50;;;11.66;91.61
66381;BME280;53177;52.648;1.214;2023-05-20T07:11:00;102273.97;;;11.77;91.92
66381;BME280;53177;52.648;1.214;2023-05-20T07:13:25;102273.06;;;11.84;91.10
66381;BME280;53177;52.648;1.214;2023-05-20T07:15:51;102267.75;;;11.85;91.12
66381;BME280;53177;52.648;1.214;2023-05-20T07:18:16;102273.03;;;11.88;89.71
66381;BME280;53177;52.648;1.214;2023-05-20T07:20:43;102273.03;;;11.91;87.76
66381;BME280;53177;52.648;1.214;2023-05-20T07:23:08;102271.25;;;12.01;88.56
66381;BME280;53177;52.648;1.214;2023-05-20T07:25:33;102275.63;;;12.02;87.09
66381;BME280;53177;52.648;1.214;2023-05-20T07:27:59;102279.16;;;12.10;87.90
66381;BME280;53177;52.648;1.214;2023-05-20T07:30:26;102269.41;;;12.13;86.26
66381;BME280;53177;52.648;1.214;2023-05-20T07:32:52;102278.22;;;12.17;85.76
66381;BME280;53177;52.648;1.214;2023-05-20T07:35:17;102273.81;;;12.19;84.10
66381;BME280;53177;52.648;1.214;2023-05-20T07:37:43;102273.75;;;12.30;84.51
66381;BME280;53177;52.648;1.214;2023-05-20T07:40:08;102272.84;;;12.35;83.80
66381;BME280;53177;52.648;1.214;2023-05-20T07:42:34;102270.13;;;12.46;83.93
66381;BME280;53177;52.648;1.214;2023-05-20T07:45:00;102278.03;;;12.53;84.19
66381;BME280;53177;52.648;1.214;2023-05-20T07:47:25;102274.50;;;12.59;81.08
66381;BME280;53177;52.648;1.214;2023-05-20T07:49:51;102270.03;;;12.62;82.10
66381;BME280;53177;52.648;1.214;2023-05-20T07:52:16;102270.81;;;12.78;80.14
66381;BME280;53177;52.648;1.214;2023-05-20T07:54:42;102272.56;;;12.79;80.27
66381;BME280;53177;52.648;1.214;2023-05-20T07:57:07;102262.06;;;12.67;77.93
66381;BME280;53177;52.648;1.214;2023-05-20T07:59:32;102261.94;;;12.82;78.38
66381;BME280;53177;52.648;1.214;2023-05-20T08:01:58;102264.53;;;12.93;78.41
66381;BME280;53177;52.648;1.214;2023-05-20T08:04:24;102266.31;;;12.86;76.67
66381;BME280;53177;52.648;1.214;2023-05-20T08:06:52;102258.28;;;12.94;77.20
66381;BME280;53177;52.648;1.214;2023-05-20T08:09:17;102257.34;;;13.02;77.53
66381;BME280;53177;52.648;1.214;2023-05-20T08:11:43;102266.16;;;13.15;76.59
66381;BME280;53177;52.648;1.214;2023-05-20T08:14:08;102260.78;;;13.23;77.22
66381;BME280;53177;52.648;1.214;2023-05-20T08:16:35;102259.78;;;13.33;76.34
66381;BME280;53177;52.648;1.214;2023-05-20T08:19:00;102256.28;;;13.28;75.89
66381;BME280;53177;52.648;1.214;2023-05-20T08:21:26;102251.03;;;13.22;75.07
66381;BME280;53177;52.648;1.214;2023-05-20T08:23:51;102257.97;;;13.36;76.33
66381;BME280;53177;52.648;1.214;2023-05-20T08:26:17;102255.25;;;13.42;77.11
66381;BME280;53177;52.648;1.214;2023-05-20T08:28:42;102255.25;;;13.44;73.86
66381;BME280;53177;52.648;1.214;2023-05-20T08:31:07;102263.16;;;13.51;75.61
66381;BME280;53177;52.648;1.214;2023-05-20T08:33:33;102254.13;;;13.64;75.40
66381;BME280;53177;52.648;1.214;2023-05-20T08:35:59;102252.19;;;13.80;74.59
66381;BME280;53177;52.648;1.214;2023-05-20T08:38:24;102257.50;;;13.80;73.27
66381;BME280;53177;52.648;1.214;2023-05-20T08:40:54;102258.31;;;13.88;74.34
66381;BME280;53177;52.648;1.214;2023-05-20T08:43:21;102262.75;;;13.89;72.92
66381;BME280;53177;52.648;1.214;2023-05-20T08:45:46;102250.06;;;14.08;72.67
66381;BME280;53177;52.648;1.214;2023-05-20T08:48:12;102252.72;;;14.11;72.38
66381;BME280;53177;52.648;1.214;2023-05-20T08:50:38;102249.72;;;14.34;71.37
66381;BME280;53177;52.648;1.214;2023-05-20T08:53:03;102244.09;;;14.58;70.91
66381;BME280;53177;52.648;1.214;2023-05-20T08:55:43;102242.44;;;14.49;69.97
66381;BME280;53177;52.648;1.214;2023-05-20T08:58:11;102241.22;;;14.73;71.37
66381;BME280;53177;52.648;1.214;2023-05-20T09:00:36;102234.09;;;14.74;69.07
66381;BME280;53177;52.648;1.214;2023-05-20T09:03:02;102234.81;;;14.85;70.59
66381;BME280;53177;52.648;1.214;2023-05-20T09:05:28;102232.00;;;14.94;69.79
66381;BME280;53177;52.648;1.214;2023-05-20T09:08:03;102231.38;;;14.77;68.67
66381;BME280;53177;52.648;1.214;2023-05-20T09:10:30;102231.34;;;14.80;69.39
66381;BME280;53177;52.648;1.214;2023-05-20T09:12:55;102225.72;;;14.98;70.23
66381;BME280;53177;52.648;1.214;2023-05-20T09:15:21;102226.91;;;15.31;69.93
66381;BME280;53177;52.648;1.214;2023-05-20T09:17:48;102240.28;;;15.28;68.85
66381;BME280;53177;52.648;1.214;2023-05-20T09:20:15;102226.09;;;15.27;69.03
66381;BME280;53177;52.648;1.214;2023-05-20T09:22:40;102226.09;;;15.27;68.20
66381;BME280;53177;52.648;1.214;2023-05-20T09:25:06;102234.97;;;15.28;68.54
66381;BME280;53177;52.648;1.214;2023-05-20T09:27:32;102221.19;;;15.53;68.54
66381;BME280;53177;52.648;1.214;2023-05-20T09:29:58;102220.00;;;15.70;68.66
66381;BME280;53177;52.648;1.214;2023-05-20T09:32:31;102217.69;;;15.96;67.92
66381;BME280;53177;52.648;1.214;2023-05-20T09:34:57;102218.72;;;15.87;65.78
66381;BME280;53177;52.648;1.214;2023-05-20T09:37:24;102226.22;;;15.69;67.33
66381;BME280;53177;52.648;1.214;2023-05-20T09:39:55;102217.50;;;15.61;67.45
66381;BME280;53177;52.648;1.214;2023-05-20T09:42:25;102216.59;;;15.62;66.60
66381;BME280;53177;52.648;1.214;2023-05-20T09:44:53;102214.44;;;15.80;68.52
66381;BME280;53177;52.648;1.214;2023-05-20T09:47:19;102213.00;;;16.05;67.15
66381;BME280;53177;52.648;1.214;2023-05-20T09:49:45;102210.91;;;15.78;66.57
66381;BME280;53177;52.648;1.214;2023-05-20T09:52:14;102210.44;;;16.01;66.55
66381;BME280;53177;52.648;1.214;2023-05-20T09:54:41;102195.00;;;16.15;67.28
66381;BME280;53177;52.648;1.214;2023-05-20T09:57:08;102200.13;;;16.26;66.08
66381;BME280;53177;52.648;1.214;2023-05-20T09:59:36;102194.19;;;16.50;66.83
66381;BME280;53177;52.648;1.214;2023-05-20T10:02:01;102202.84;;;16.63;65.61
66381;BME280;53177;52.648;1.214;2023-05-20T10:04:28;102200.03;;;16.29;63.45
66381;BME280;53177;52.648;1.214;2023-05-20T10:20:49;102195.97;;;16.51;65.20
66381;BME280;53177;52.648;1.214;2023-05-20T10:23:28;102194.81;;;16.24;64.73
66381;BME280;53177;52.648;1.214;2023-05-20T10:25:55;102190.19;;;16.32;64.38
66381;BME280;53177;52.648;1.214;2023-05-20T10:28:31;102190.19;;;16.32;64.39
66381;BME280;53177;52.648;1.214;2023-05-20T10:30:57;102182.81;;;16.42;65.73
66381;BME280;53177;52.648;1.214;2023-05-20T10:33:25;102178.66;;;16.69;63.66
66381;BME280;53177;52.648;1.214;2023-05-20T10:35:52;102193.41;;;16.83;63.01
66381;BME280;53177;52.648;1.214;2023-05-20T10:38:18;102191.03;;;16.73;64.20
66381;BME280;53177;52.648;1.214;2023-05-20T10:40:44;102190.06;;;17.11;63.93
66381;BME280;53177;52.648;1.214;2023-05-20T10:43:14;102183.25;;;17.31;63.26
66381;BME280;53177;52.648;1.214;2023-05-20T10:45:51;102185.75;;;17.37;62.30
66381;BME280;53177;52.648;1.214;2023-05-20T10:48:23;102188.13;;;17.16;61.82
66381;BME280;53177;52.648;1.214;2023-05-20T10:50:48;102179.25;;;17.47;61.12
66381;BME280;53177;52.648;1.214;2023-05-20T10:53:14;102179.56;;;17.35;61.56
66381;BME280;53177;52.648;1.214;2023-05-20T10:55:47;102173.63;;;17.24;60.11
66381;BME280;53177;52.648;1.214;2023-05-20T10:58:14;102169.00;;;17.31;60.53
66381;BME280;53177;52.648;1.214;2023-05-20T11:00:39;102170.06;;;17.25;60.62
66381;BME280;53177;52.648;1.214;2023-05-20T11:03:05;102170.28;;;17.16;61.31
66381;BME280;53177;52.648;1.214;2023-05-20T11:05:31;102153.50;;;17.74;62.87
66381;BME280;53177;52.648;1.214;2023-05-20T11:08:03;102161.75;;;17.67;57.95
66381;BME280;53177;52.648;1.214;2023-05-20T11:10:29;102159.06;;;17.36;59.76
66381;BME280;53177;52.648;1.214;2023-05-20T11:12:55;102164.00;;;17.49;60.21
66381;BME280;53177;52.648;1.214;2023-05-20T11:15:22;102162.69;;;17.66;60.71
66381;BME280;53177;52.648;1.214;2023-05-20T11:17:54;102165.50;;;17.61;57.50
66381;BME280;53177;52.648;1.214;2023-05-20T11:20:25;102162.69;;;17.33;58.10
66381;BME280;53177;52.648;1.214;2023-05-20T11:22:54;102165.44;;;17.30;60.04
66381;BME280;53177;52.648;1.214;2023-05-20T11:25:21;102156.81;;;17.51;61.34
66381;BME280;53177;52.648;1.214;2023-05-20T11:27:50;102150.47;;;17.86;61.79
66381;BME280;53177;52.648;1.214;2023-05-20T11:30:17;102154.50;;;18.01;57.78
66381;BME280;53177;52.648;1.214;2023-05-20T11:32:59;102156.56;;;17.62;57.47
66381;BME280;53177;52.648;1.214;2023-05-20T11:35:26;102157.81;;;17.15;58.51
66381;BME280;53177;52.648;1.214;2023-05-20T11:40:27;102149.91;;;17.75;56.92
66381;BME280;53177;52.648;1.214;2023-05-20T11:42:54;102154.63;;;17.67;57.06
66381;BME280;53177;52.648;1.214;2023-05-20T11:45:19;102149.41;;;17.30;57.26
66381;BME280;53177;52.648;1.214;2023-05-20T11:47:45;102141.34;;;17.32;58.77
66381;BME280;53177;52.648;1.214;2023-05-20T11:50:16;102138.25;;;17.78;58.65
66381;BME280;53177;52.648;1.214;2023-05-20T11:52:45;102129.88;;;17.59;55.98
66381;BME280;53177;52.648;1.214;2023-05-20T11:55:10;102138.47;;;17.39;55.93
66381;BME280;53177;52.648;1.214;2023-05-20T11:57:37;102131.63;;;17.29;56.21
66381;BME280;53177;52.648;1.214;2023-05-20T12:00:02;102137.34;;;17.46;54.74
66381;BME280;53177;52.648;1.214;2023-05-20T12:02:31;102138.75;;;17.61;54.78
66381;BME280;53177;52.648;1.214;2023-05-20T12:04:56;102135.06;;;17.65;54.77
66381;BME280;53177;52.648;1.214;2023-05-20T12:07:22;102140.66;;;18.15;58.01
66381;BME280;53177;52.648;1.214;2023-05-20T12:09:47;102138.00;;;18.15;55.86
66381;BME280;53177;52.648;1.214;2023-05-20T12:12:13;102130.22;;;17.78;54.36
66381;BME280;53177;52.648;1.214;2023-05-20T12:14:38;102132.84;;;17.79;55.40
66381;BME280;53177;52.648;1.214;2023-05-20T12:17:04;102129.16;;;17.52;55.16
66381;BME280;53177;52.648;1.214;2023-05-20T12:19:29;102126.34;;;17.26;57.78
66381;BME280;53177;52.648;1.214;2023-05-20T12:21:55;102125.41;;;17.27;55.70
66381;BME280;53177;52.648;1.214;2023-05-20T12:24:20;102126.13;;;17.34;57.44
66381;BME280;53177;52.648;1.214;2023-05-20T12:26:45;102123.91;;;17.48;58.38
66381;BME280;53177;52.648;1.214;2023-05-20T12:29:11;102123.81;;;17.83;68.62
66381;BME280;53177;52.648;1.214;2023-05-20T12:31:36;102125.09;;;17.99;59.54
66381;BME280;53177;52.648;1.214;2023-05-20T12:34:02;102125.88;;;17.74;57.61
66381;BME280;53177;52.648;1.214;2023-05-20T12:36:27;102129.53;;;17.40;58.96
66381;BME280;53177;52.648;1.214;2023-05-20T12:38:52;102128.19;;;17.24;60.07
66381;BME280;53177;52.648;1.214;2023-05-20T12:41:18;102130.25;;;17.45;61.04
66381;BME280;53177;52.648;1.214;2023-05-20T12:43:43;102133.19;;;17.04;60.96
66381;BME280;53177;52.648;1.214;2023-05-20T12:46:09;102126.97;;;17.96;59.66
66381;BME280;53177;52.648;1.214;2023-05-20T12:48:34;102126.97;;;17.96;57.32
66381;BME280;53177;52.648;1.214;2023-05-20T12:51:00;102127.19;;;17.59;59.69
66381;BME280;53177;52.648;1.214;2023-05-20T12:53:26;102125.09;;;17.70;57.42
66381;BME280;53177;52.648;1.214;2023-05-20T12:55:51;102124.53;;;17.27;56.60
66381;BME280;53177;52.648;1.214;2023-05-20T12:58:17;102119.31;;;17.53;56.53
66381;BME280;53177;52.648;1.214;2023-05-20T13:00:42;102115.13;;;17.44;57.57
66381;BME280;53177;52.648;1.214;2023-05-20T13:03:08;102115.34;;;17.68;57.83